Time;durP1;ratioP1;P1;durP2;ratioP2;P2;SDS_P1;SDS_P2;PMS_P1;PMS_P2;Temp;Humidity;BMP_temperature;BMP_pressure;BME280_temperature;BME280_humidity;BME280_pressure;Samples;Min_cycle;Max_cycle;Signal;HPM_P1;HPM_P2
2022/02/09 00:02:48;;;;;;;18.83;8.82;;;;;;;2.76;53.79;95703.19;4905093;29;20116;-76
2022/02/09 00:07:58;;;;;;;22.30;9.90;;;;;;;2.78;54.07;95705.63;4903805;29;20025;-77
2022/02/09 00:10:24;;;;;;;16.88;9.27;;;;;;;2.86;53.77;95706.38;4891005;29;20041;-77
2022/02/09 00:13:05;;;;;;;18.33;7.65;;;;;;;2.91;53.69;95705.91;4905627;29;20048;-76
2022/02/09 00:15:39;;;;;;;14.35;7.50;;;;;;;2.95;53.58;95714.91;4905061;29;20111;-76
2022/02/09 00:23:48;;;;;;;14.05;8.05;;;;;;;2.86;53.58;95723.56;4877398;29;20047;-76
2022/02/09 00:26:45;;;;;;;28.30;7.75;;;;;;;2.85;54.06;95722.78;4880134;29;20036;-76
2022/02/09 00:41:49;;;;;;;14.55;7.88;;;;;;;2.85;54.16;95732.25;4887722;29;20052;-76
2022/02/09 00:44:37;;;;;;;25.33;8.07;;;;;;;2.81;53.80;95726.63;4904376;29;20028;-76
2022/02/09 01:39:14;;;;;;;20.40;9.50;;;;;;;2.77;55.04;95720.22;4902970;29;20435;-76
2022/02/09 01:43:15;;;;;;;20.85;9.80;;;;;;;2.85;54.71;95717.63;4879047;29;20446;-76
2022/02/09 01:55:36;;;;;;;16.08;7.72;;;;;;;3.08;54.15;95722.09;4902212;29;20080;-76
2022/02/09 01:58:02;;;;;;;12.90;6.80;;;;;;;3.14;53.86;95711.19;4904339;29;20068;-76
2022/02/09 02:00:27;;;;;;;15.57;6.60;;;;;;;3.22;53.96;95709.38;4902106;29;20448;-77
2022/02/09 02:02:53;;;;;;;18.17;6.22;;;;;;;3.25;53.52;95713.38;4901754;29;20064;-76
2022/02/09 02:05:19;;;;;;;17.08;7.07;;;;;;;3.34;53.65;95722.69;4887142;29;20028;-76
2022/02/09 02:07:53;;;;;;;22.90;7.15;;;;;;;3.33;53.53;95718.53;4903131;29;20393;-76
2022/02/09 02:10:31;;;;;;;14.13;6.28;;;;;;;3.39;53.72;95725.56;4902625;29;20032;-76
2022/02/09 02:13:13;;;;;;;18.33;6.82;;;;;;;3.49;53.48;95731.34;4898845;29;20592;-76
2022/02/09 02:18:20;;;;;;;22.60;6.28;;;;;;;3.58;53.49;95732.13;4906775;29;20071;-76
2022/02/09 02:26:14;;;;;;;11.95;7.05;;;;;;;3.63;53.68;95734.19;4906646;29;20036;-76
2022/02/09 02:32:13;;;;;;;13.45;6.70;;;;;;;3.54;53.70;95748.84;4919917;29;20092;-76
2022/02/09 02:58:16;;;;;;;12.07;6.03;;;;;;;3.99;52.79;95761.06;4904642;29;20059;-76
2022/02/09 03:14:13;;;;;;;17.58;7.07;;;;;;;3.85;53.93;95772.84;4888928;29;20051;-77
2022/02/09 03:16:44;;;;;;;11.82;6.85;;;;;;;3.82;53.46;95777.53;4889223;29;20160;-77
2022/02/09 03:47:19;;;;;;;14.20;6.25;;;;;;;3.65;54.70;95751.06;4898679;29;20536;-76
2022/02/09 03:55:09;;;;;;;13.95;7.25;;;;;;;3.81;54.38;95747.63;4904059;29;20107;-76
2022/02/09 03:57:56;;;;;;;10.88;6.93;;;;;;;3.83;54.70;95761.13;4904994;29;20043;-76
2022/02/09 04:00:23;;;;;;;12.48;6.68;;;;;;;3.86;54.81;95747.94;4916873;29;20051;-76
2022/02/09 04:02:51;;;;;;;16.70;7.78;;;;;;;3.88;55.15;95744.22;4888342;29;20042;-76
2022/02/09 04:05:18;;;;;;;12.48;6.38;;;;;;;3.88;54.74;95744.22;4903241;29;20485;-76
2022/02/09 04:07:44;;;;;;;12.57;5.97;;;;;;;3.93;54.44;95743.72;4904756;29;20036;-76
2022/02/09 04:10:14;;;;;;;11.80;6.35;;;;;;;3.88;54.64;95751.13;4888025;29;20039;-76
2022/02/09 04:13:02;;;;;;;8.85;7.00;;;;;;;3.88;54.63;95744.22;4903110;29;20060;-76
2022/02/09 04:39:29;;;;;;;8.73;5.90;;;;;;;4.16;55.11;95747.16;4890122;29;20039;-76
2022/02/09 04:54:54;;;;;;;21.23;11.88;;;;;;;4.39;55.00;95744.63;4888522;29;20657;-77
2022/02/09 05:00:22;;;;;;;19.70;9.50;;;;;;;4.55;55.47;95748.03;4904190;29;20035;-78
2022/02/09 05:27:01;;;;;;;13.90;8.98;;;;;;;4.73;55.82;95764.84;4902780;29;20104;-74
2022/02/09 05:29:27;;;;;;;18.27;11.80;;;;;;;4.72;56.10;95760.66;4902724;29;20842;-75
2022/02/09 05:31:53;;;;;;;19.00;10.75;;;;;;;4.63;56.65;95753.94;4902298;29;20051;-75
2022/02/09 05:34:18;;;;;;;11.25;6.72;;;;;;;4.67;57.01;95762.94;4901849;29;20124;-75
2022/02/09 05:36:44;;;;;;;6.97;5.15;;;;;;;4.69;56.61;95770.50;4887529;29;20896;-75
2022/02/09 05:39:09;;;;;;;13.35;6.85;;;;;;;4.72;57.09;95776.13;4894689;29;20035;-75
2022/02/09 05:41:41;;;;;;;17.40;10.63;;;;;;;4.74;56.71;95774.16;4903420;29;20045;-75
2022/02/09 05:44:07;;;;;;;19.02;8.50;;;;;;;4.81;56.58;95775.06;4901697;29;20032;-75
2022/02/09 05:49:29;;;;;;;21.45;11.52;;;;;;;4.81;57.28;95780.22;4909564;29;20163;-76
2022/02/09 05:52:03;;;;;;;19.60;10.65;;;;;;;4.90;56.94;95775.03;4908192;29;20516;-75
2022/02/09 05:57:25;;;;;;;15.18;7.40;;;;;;;4.92;56.39;95793.69;4909669;29;20183;-75
2022/02/09 05:59:51;;;;;;;11.63;6.53;;;;;;;4.98;56.26;95793.00;4908253;29;20040;-75
2022/02/09 06:02:19;;;;;;;20.13;11.00;;;;;;;5.04;56.00;95795.69;4876080;29;20064;-75
2022/02/09 06:04:44;;;;;;;19.83;9.20;;;;;;;5.08;56.19;95811.63;4915148;29;20039;-80
2022/02/09 06:07:11;;;;;;;14.80;8.57;;;;;;;5.08;56.44;95811.63;4890861;29;20043;-75
2022/02/09 06:09:36;;;;;;;14.32;9.02;;;;;;;5.12;56.98;95803.34;4907030;29;20072;-75
2022/02/09 06:19:59;;;;;;;12.98;6.85;;;;;;;5.23;56.41;95819.41;4908822;29;20051;-75
2022/02/09 06:22:24;;;;;;;10.95;7.40;;;;;;;5.27;56.27;95825.81;4907840;29;20041;-75
2022/02/09 06:24:50;;;;;;;16.02;9.82;;;;;;;5.28;55.70;95823.06;4909799;29;20488;-75
2022/02/09 06:27:16;;;;;;;17.70;8.38;;;;;;;5.29;55.98;95829.00;4908609;29;20032;-75
2022/02/09 06:29:46;;;;;;;16.58;11.25;;;;;;;5.35;55.81;95838.63;4893900;29;20040;-75
2022/02/09 06:32:13;;;;;;;27.15;15.95;;;;;;;5.36;55.74;95840.22;4900582;29;20401;-75
2022/02/09 06:34:39;;;;;;;18.42;11.13;;;;;;;5.35;56.31;95836.84;4884337;29;20048;-75
2022/02/09 06:39:36;;;;;;;31.92;15.95;;;;;;;5.42;56.14;95835.19;4909621;29;20071;-75
2022/02/09 06:42:02;;;;;;;18.77;8.02;;;;;;;5.44;56.20;95835.00;4907759;29;20064;-75
2022/02/09 06:44:30;;;;;;;20.48;10.85;;;;;;;5.47;56.01;95841.59;4908758;29;20425;-75
2022/02/09 06:46:56;;;;;;;36.28;12.70;;;;;;;5.52;55.99;95841.84;4909578;29;20547;-75
2022/02/09 06:49:22;;;;;;;25.17;11.25;;;;;;;5.50;55.60;95846.41;4908850;29;20036;-75
2022/02/09 06:51:47;;;;;;;33.33;13.07;;;;;;;5.39;56.12;95851.00;4909372;29;20037;-76
2022/02/09 06:54:24;;;;;;;23.10;9.45;;;;;;;5.36;56.83;95850.53;4906964;29;20037;-75
2022/02/09 06:59:41;;;;;;;27.23;15.13;;;;;;;5.41;56.56;95845.69;4897762;29;20044;-76
2022/02/09 07:02:04;;;;;;;29.58;12.63;;;;;;;5.48;55.96;95853.50;4907008;29;20171;-76
2022/02/09 07:04:30;;;;;;;22.33;10.63;;;;;;;5.42;55.53;95845.50;4904645;29;20036;-76
2022/02/09 07:06:56;;;;;;;26.77;14.65;;;;;;;5.35;56.33;95838.63;4904136;29;20504;-75
2022/02/09 07:09:30;;;;;;;18.50;9.82;;;;;;;5.45;55.88;95843.56;4904207;29;20032;-75
2022/02/09 07:11:56;;;;;;;24.27;11.98;;;;;;;5.40;56.52;95842.31;4904860;29;20044;-75
2022/02/09 07:14:25;;;;;;;21.95;11.90;;;;;;;5.45;55.98;95843.56;4905575;29;20047;-75
2022/02/09 07:16:51;;;;;;;31.05;16.15;;;;;;;5.43;56.04;95841.94;4905496;29;20509;-76
2022/02/09 07:19:16;;;;;;;26.08;13.93;;;;;;;5.49;56.28;95839.63;4896917;29;20036;-76
2022/02/09 07:21:42;;;;;;;35.13;17.83;;;;;;;5.54;56.59;95850.25;4905755;29;20477;-73
2022/02/09 07:24:12;;;;;;;40.35;18.98;;;;;;;5.58;55.86;95851.50;4894676;29;20048;-76
2022/02/09 07:26:48;;;;;;;43.03;20.30;;;;;;;5.67;56.00;95845.28;4904796;29;20039;-76
2022/02/09 07:29:14;;;;;;;23.45;13.32;;;;;;;5.70;55.19;95850.09;4896599;29;20051;-75
2022/02/09 07:31:40;;;;;;;20.63;13.30;;;;;;;5.68;55.93;95852.03;4903551;29;20056;-76
2022/02/09 07:34:06;;;;;;;17.27;11.73;;;;;;;5.72;55.21;95850.72;4903694;29;20029;-75
2022/02/09 07:36:35;;;;;;;17.30;10.38;;;;;;;5.78;55.59;95855.19;4895190;29;20120;-75
2022/02/09 07:39:03;;;;;;;16.75;10.25;;;;;;;5.86;55.42;95857.69;4903629;29;20040;-75
2022/02/09 07:41:29;;;;;;;14.02;9.10;;;;;;;6.00;54.85;95867.22;4904618;29;20040;-76
2022/02/09 07:49:02;;;;;;;17.10;7.25;;;;;;;6.28;53.36;95845.97;4905271;29;20044;-76
2022/02/09 07:51:40;;;;;;;21.33;11.48;;;;;;;6.30;53.02;95856.91;4905172;29;20134;-75
2022/02/09 07:54:06;;;;;;;35.67;22.85;;;;;;;6.27;53.49;95849.53;4897138;29;20099;-75
2022/02/09 07:56:33;;;;;;;37.28;20.70;;;;;;;6.28;53.20;95866.63;4911874;29;20556;-75
2022/02/09 07:58:59;;;;;;;64.72;34.65;;;;;;;6.33;53.28;95864.28;4904378;29;20072;-75
2022/02/09 08:01:25;;;;;;;62.13;34.90;;;;;;;6.39;53.03;95868.75;4905037;29;20037;-75
2022/02/09 08:03:50;;;;;;;28.73;15.35;;;;;;;6.52;52.67;95863.75;4918731;29;20029;-75
2022/02/09 08:06:17;;;;;;;22.55;12.93;;;;;;;6.54;52.28;95856.63;4895563;29;20043;-76
2022/02/09 08:08:44;;;;;;;24.08;12.63;;;;;;;6.54;52.19;95851.47;4903243;29;20032;-75
2022/02/09 08:30:03;;;;;;;12.60;8.63;;;;;;;6.99;51.93;95851.34;4887228;29;20430;-75
2022/02/09 08:34:54;;;;;;;15.48;7.57;;;;;;;7.27;51.31;95841.06;4903980;29;20060;-74
2022/02/09 08:37:19;;;;;;;12.20;7.85;;;;;;;7.37;51.07;95838.97;4887364;29;20404;-75
2022/02/09 08:39:45;;;;;;;10.45;6.43;;;;;;;7.52;50.39;95852.63;4886663;29;20087;-76
2022/02/09 08:42:10;;;;;;;15.55;6.00;;;;;;;7.65;50.15;95850.16;4904106;29;20532;-74
2022/02/09 08:44:36;;;;;;;21.40;8.35;;;;;;;7.87;50.02;95837.16;4893757;29;20425;-74
2022/02/09 08:47:01;;;;;;;12.88;7.80;;;;;;;8.03;49.84;95852.41;4890918;29;20448;-75
2022/02/09 08:49:28;;;;;;;12.05;6.45;;;;;;;8.07;49.29;95857.00;4906514;29;20080;-75
2022/02/09 08:51:57;;;;;;;15.85;7.53;;;;;;;8.16;49.41;95860.25;4905245;29;20040;-76
2022/02/09 08:54:23;;;;;;;14.60;8.85;;;;;;;8.16;49.36;95860.25;4903735;29;20051;-76
2022/02/09 08:56:48;;;;;;;9.25;6.32;;;;;;;8.07;49.36;95861.38;4894590;29;20428;-75
2022/02/09 08:59:14;;;;;;;15.93;6.82;;;;;;;7.99;50.03;95866.72;4903413;29;20514;-75
2022/02/09 09:01:46;;;;;;;11.60;5.25;;;;;;;7.86;49.77;95861.44;4902882;29;20044;-75
2022/02/09 09:04:22;;;;;;;13.50;7.20;;;;;;;7.81;50.87;95864.59;4902717;29;20037;-76
2022/02/09 09:06:55;;;;;;;16.35;8.30;;;;;;;7.80;50.84;95871.56;4901998;29;20909;-75
2022/02/09 10:34:35;;;;;;;9.50;5.68;;;;;;;7.89;53.48;95825.59;4904616;29;20079;-75
2022/02/09 10:37:01;;;;;;;18.20;8.45;;;;;;;8.07;53.20;95838.06;4904894;29;20099;-75
2022/02/09 10:42:22;;;;;;;13.93;6.50;;;;;;;8.36;51.76;95831.88;4905376;29;20323;-75
2022/02/09 10:44:51;;;;;;;10.05;5.07;;;;;;;8.37;51.90;95821.31;4904741;29;20051;-75
2022/02/09 10:47:20;;;;;;;4.40;4.03;;;;;;;8.22;52.30;95830.97;4904875;29;20473;-75
2022/02/09 10:50:08;;;;;;;6.97;3.78;;;;;;;8.15;52.14;95840.50;4905804;29;20047;-75
2022/02/09 10:52:35;;;;;;;8.77;4.55;;;;;;;8.15;52.84;95835.34;4905459;29;20036;-75
2022/02/09 10:55:00;;;;;;;7.95;4.53;;;;;;;8.20;52.73;95832.16;4905506;29;20428;-75
2022/02/09 10:57:26;;;;;;;15.80;5.85;;;;;;;8.24;52.42;95829.00;4880778;29;20040;-75
2022/02/09 10:59:51;;;;;;;7.78;4.80;;;;;;;8.15;52.74;95830.16;4905256;29;20043;-75
2022/02/09 11:02:25;;;;;;;8.73;4.50;;;;;;;8.11;52.99;95826.31;4888624;29;20065;-75
2022/02/09 11:04:51;;;;;;;8.60;5.13;;;;;;;8.16;55.13;95823.97;4905642;29;20115;-79
2022/02/09 11:07:17;;;;;;;9.90;5.80;;;;;;;8.22;56.55;95820.59;4912129;29;20114;-79
2022/02/09 11:09:42;;;;;;;8.88;4.80;;;;;;;8.26;55.55;95826.19;4898162;29;20087;-79
2022/02/09 11:12:08;;;;;;;5.90;3.90;;;;;;;8.25;54.96;95825.41;4897566;29;20040;-80
2022/02/09 11:14:33;;;;;;;9.68;4.40;;;;;;;8.29;55.24;95831.78;4913939;29;20138;-80
2022/02/09 11:17:00;;;;;;;8.60;5.00;;;;;;;8.28;54.74;95827.59;4913738;29;20056;-80
2022/02/09 11:19:37;;;;;;;7.60;4.53;;;;;;;8.28;55.12;95834.56;4911262;29;20052;-80
2022/02/09 11:22:16;;;;;;;8.32;4.90;;;;;;;8.24;55.20;95826.41;4894059;29;20047;-78
2022/02/09 11:24:46;;;;;;;7.00;3.35;;;;;;;8.14;54.30;95831.16;4907475;29;20159;-78
2022/02/09 11:27:17;;;;;;;5.90;3.95;;;;;;;7.96;54.70;95828.22;4876972;29;20412;-78
2022/02/09 11:32:31;;;;;;;4.63;3.42;;;;;;;7.79;56.61;95836.28;4890921;29;20044;-78
2022/02/09 11:38:18;;;;;;;11.95;3.65;;;;;;;7.72;56.82;95834.66;4908518;29;20044;-78
2022/02/09 12:09:50;;;;;;;12.88;9.48;;;;;;;7.97;55.03;95822.06;4946407;23;20172;-79
2022/02/09 12:12:20;;;;;;;30.73;13.27;;;;;;;7.98;55.44;95839.22;4942291;23;20074;-79
2022/02/09 12:20:19;;;;;;;20.20;12.68;;;;;;;8.01;54.38;95844.81;4936867;29;20042;-78
2022/02/09 12:22:51;;;;;;;27.58;16.00;;;;;;;7.96;54.36;95846.34;4920630;29;20051;-76
2022/02/09 12:25:44;;;;;;;18.30;11.48;;;;;;;7.92;54.91;95848.53;4921535;29;20024;-76
2022/02/09 12:28:19;;;;;;;7.07;5.97;;;;;;;7.88;54.63;95851.69;4928184;29;20118;-77
2022/02/09 12:30:45;;;;;;;6.88;5.30;;;;;;;7.74;54.84;95851.59;4932121;29;20441;-77
2022/02/09 12:33:20;;;;;;;7.68;6.55;;;;;;;7.66;55.37;95856.13;4933356;29;20070;-77
2022/02/09 12:35:45;;;;;;;13.98;9.63;;;;;;;7.58;55.97;95864.81;4934196;29;20094;-78
2022/02/09 12:38:11;;;;;;;20.88;11.27;;;;;;;7.60;56.29;95869.81;4935191;29;20047;-77
2022/02/09 12:40:38;;;;;;;9.52;5.50;;;;;;;7.51;56.47;95853.63;4933899;29;20039;-77
2022/02/09 12:43:05;;;;;;;11.00;7.68;;;;;;;7.40;57.11;95869.63;4930721;29;20125;-77
2022/02/09 12:45:32;;;;;;;26.08;14.95;;;;;;;7.40;57.18;95867.06;4928681;29;20098;-77
2022/02/09 12:48:02;;;;;;;41.65;24.27;;;;;;;7.45;57.15;95869.88;4930612;29;20040;-77
2022/02/09 12:50:34;;;;;;;17.98;13.20;;;;;;;7.38;57.13;95871.63;4930254;29;20409;-78
2022/02/09 12:53:02;;;;;;;14.55;6.57;;;;;;;7.32;57.78;95873.16;4931479;29;20476;-77
2022/02/09 12:55:28;;;;;;;14.70;9.65;;;;;;;7.37;57.83;95862.25;4945214;28;20051;-77
2022/02/09 12:58:08;;;;;;;11.30;7.38;;;;;;;7.35;57.87;95848.72;4930466;29;20527;-76
2022/02/09 13:00:41;;;;;;;13.23;10.07;;;;;;;7.33;58.08;95864.41;4915663;29;20571;-77
2022/02/09 13:03:16;;;;;;;11.82;9.25;;;;;;;7.35;57.92;95848.72;4946040;29;20334;-77
2022/02/09 13:05:46;;;;;;;10.90;8.35;;;;;;;7.34;58.20;95857.47;4931161;29;20082;-77
2022/02/09 13:08:11;;;;;;;7.32;5.30;;;;;;;7.28;57.86;95848.63;4930522;29;20059;-77
2022/02/09 13:10:38;;;;;;;7.32;5.45;;;;;;;7.06;58.81;95850.44;4931492;29;20130;-77
2022/02/09 13:13:19;;;;;;;5.60;5.10;;;;;;;6.99;58.80;95854.72;4931527;29;20027;-77
2022/02/09 13:15:53;;;;;;;8.98;6.00;;;;;;;6.84;59.29;95851.41;4929700;29;20032;-77
2022/02/09 13:18:43;;;;;;;17.75;9.68;;;;;;;6.80;59.69;95860.47;4931337;29;20039;-78
2022/02/09 14:13:52;;;;;;;26.15;14.20;;;;;;;6.59;63.44;95892.25;4938085;29;20047;-77
2022/02/09 14:16:55;;;;;;;18.70;12.00;;;;;;;6.58;62.97;95888.06;4980721;23;20048;-78
2022/02/09 14:52:22;;;;;;;28.70;17.70;;;;;;;6.28;65.38;95907.94;4888116;29;20043;-77
2022/02/09 14:54:55;;;;;;;27.27;15.80;;;;;;;6.34;64.51;95904.66;4938222;23;20550;-78
2022/02/09 14:57:28;;;;;;;;;;;;;;;6.33;64.65;95909.00;4944278;29;20099;-77
2022/02/09 15:02:37;;;;;;;30.48;19.83;;;;;;;6.32;64.44;95899.66;4932864;29;20119;-77
2022/02/09 15:07:46;;;;;;;41.10;23.60;;;;;;;6.40;64.57;95893.63;4923308;29;20107;-76
2022/02/09 15:12:58;;;;;;;32.20;17.65;;;;;;;6.49;64.23;95900.28;4926472;29;20081;-78
2022/02/09 15:15:49;;;;;;;53.88;29.42;;;;;;;6.53;63.98;95896.38;4922671;29;20039;-78
2022/02/09 15:23:08;;;;;;;24.40;16.63;;;;;;;6.55;63.84;95891.81;4947868;23;20040;-77
2022/02/09 15:25:35;;;;;;;32.33;17.88;;;;;;;6.53;64.00;95896.38;4915534;29;20634;-78
2022/02/09 15:28:02;;;;;;;17.58;13.30;;;;;;;6.56;63.65;95901.19;4916669;29;20535;-79
2022/02/09 15:30:31;;;;;;;31.98;18.08;;;;;;;6.60;63.67;95899.81;4917079;29;20036;-78
2022/02/09 15:32:59;;;;;;;25.42;16.00;;;;;;;6.63;63.11;95906.41;4901547;29;20067;-78
2022/02/09 15:35:37;;;;;;;29.73;18.20;;;;;;;6.61;63.24;95898.84;4903957;29;20082;-78
2022/02/09 15:38:25;;;;;;;47.88;28.30;;;;;;;6.63;62.93;95903.84;4938536;29;20031;-78
2022/02/09 15:59:39;;;;;;;104.07;43.15;;;;;;;6.48;63.33;95918.53;4914913;29;20067;-78
2022/02/09 16:23:46;;;;;;;32.72;18.63;;;;;;;6.08;65.00;95948.19;4898954;29;20039;-77
2022/02/09 16:44:54;;;;;;;34.50;20.45;;;;;;;5.91;66.14;95974.16;4898349;29;20054;-77
2022/02/09 16:47:42;;;;;;;29.90;19.38;;;;;;;5.91;65.96;95969.00;4913322;29;20024;-77
2022/02/09 16:50:09;;;;;;;35.22;22.27;;;;;;;5.95;66.40;95970.25;4898896;29;20079;-77
2022/02/09 17:19:22;;;;;;;29.08;18.55;;;;;;;5.88;66.36;95995.13;4914670;29;20472;-78
2022/02/09 17:21:47;;;;;;;31.83;17.60;;;;;;;5.85;67.00;96000.59;4913404;29;20040;-77
2022/02/09 17:24:13;;;;;;;37.88;23.08;;;;;;;5.85;66.32;96000.59;4914743;29;20044;-77
2022/02/09 17:26:39;;;;;;;38.75;23.60;;;;;;;5.84;66.75;96004.16;4913187;29;20032;-77
2022/02/09 17:29:05;;;;;;;34.65;21.30;;;;;;;5.80;66.97;96002.91;4911322;29;20070;-77
2022/02/09 17:31:39;;;;;;;35.97;21.48;;;;;;;5.82;66.44;96015.63;4912123;29;20036;-77
2022/02/09 17:57:51;;;;;;;26.85;14.00;;;;;;;5.66;67.22;96026.88;4905606;29;20052;-77
2022/02/09 18:00:17;;;;;;;27.80;18.15;;;;;;;5.69;67.30;96027.38;4911184;29;20684;-77
2022/02/09 18:02:47;;;;;;;23.75;15.77;;;;;;;5.72;67.03;96021.84;4918320;29;20108;-77
2022/02/09 18:08:03;;;;;;;19.63;13.95;;;;;;;5.72;66.93;96023.63;4910996;29;20173;-77
2022/02/09 18:31:38;;;;;;;44.85;26.80;;;;;;;5.95;65.25;96036.56;4914093;29;20028;-79
2022/02/09 18:44:35;;;;;;;56.80;30.40;;;;;;;5.99;65.19;96042.97;4899114;29;20050;-78
2022/02/09 19:01:15;;;;;;;31.38;17.77;;;;;;;5.68;65.92;96036.06;4915780;29;20055;-78
2022/02/09 19:03:28;;;;;;;33.90;20.23;;;;;;;5.63;66.12;96034.97;4902601;29;20044;-78
2022/02/09 19:05:55;;;;;;;29.80;17.65;;;;;;;5.59;65.81;96044.03;4900410;29;20597;-78
2022/02/09 19:31:43;;;;;;;31.08;18.38;;;;;;;5.45;64.59;96049.91;4913106;29;20524;-76
2022/02/09 19:45:33;;;;;;;23.38;14.63;;;;;;;5.53;63.75;96079.06;4916998;29;20036;-77
2022/02/09 19:50:48;;;;;;;40.50;21.83;;;;;;;5.57;63.81;96071.78;4916954;29;20115;-78
2022/02/09 19:55:57;;;;;;;60.33;27.50;;;;;;;5.61;63.42;96078.19;4916647;29;20055;-78
2022/02/09 19:58:29;;;;;;;53.35;29.20;;;;;;;5.62;63.23;96075.44;4902908;29;20044;-79
2022/02/09 20:00:58;;;;;;;48.38;26.75;;;;;;;5.66;63.26;96068.97;4886746;29;20421;-78
2022/02/09 20:03:23;;;;;;;48.25;26.33;;;;;;;5.67;63.29;96064.59;4914573;29;20036;-78
2022/02/09 20:05:49;;;;;;;27.50;16.92;;;;;;;5.64;62.78;96065.75;4883024;29;20032;-79
2022/02/09 20:08:14;;;;;;;31.10;18.35;;;;;;;5.62;62.56;96072.06;4914465;29;20039;-78
2022/02/09 20:10:40;;;;;;;31.38;18.83;;;;;;;5.65;62.69;96077.69;4900678;29;20035;-78
2022/02/09 20:13:05;;;;;;;55.33;30.52;;;;;;;5.68;63.06;96081.69;4916608;29;20092;-79
2022/02/09 20:15:31;;;;;;;58.83;29.48;;;;;;;5.73;62.43;96075.06;4908241;29;20406;-78
2022/02/09 20:17:56;;;;;;;53.30;27.38;;;;;;;5.77;62.29;96074.72;4915419;29;20912;-78
2022/02/09 20:20:27;;;;;;;28.70;17.83;;;;;;;5.74;62.42;96086.19;4915678;29;20516;-78
2022/02/09 20:22:54;;;;;;;33.13;18.95;;;;;;;5.81;62.89;96087.09;4918209;29;20587;-78
2022/02/09 20:25:21;;;;;;;33.30;17.40;;;;;;;5.90;62.40;96091.28;4923552;29;20098;-78
2022/02/09 20:27:48;;;;;;;28.13;17.77;;;;;;;6.01;62.39;96098.63;4899266;29;20427;-78
2022/02/09 20:30:17;;;;;;;29.98;16.77;;;;;;;6.06;61.53;96097.31;4920943;29;20040;-79
2022/02/09 20:32:49;;;;;;;48.25;23.02;;;;;;;6.11;61.48;96103.56;4911060;29;20114;-78
2022/02/09 20:35:16;;;;;;;43.30;22.45;;;;;;;6.09;61.83;96109.88;4908701;29;20040;-78
2022/02/09 20:37:46;;;;;;;42.67;21.90;;;;;;;6.10;62.01;96109.72;4915061;29;20075;-78
2022/02/09 20:40:48;;;;;;;40.85;21.73;;;;;;;6.15;61.42;96107.41;4889682;29;20496;-78
2022/02/09 20:43:05;;;;;;;44.88;22.90;;;;;;;6.20;61.19;96106.91;4915766;29;20122;-78
2022/02/09 20:48:03;;;;;;;63.22;30.60;;;;;;;6.17;61.94;96107.25;4916680;29;20043;-77
2022/02/09 20:50:29;;;;;;;64.03;31.63;;;;;;;6.19;61.10;96103.53;4912042;29;20423;-79
2022/02/09 20:52:54;;;;;;;64.70;37.63;;;;;;;6.22;60.96;96104.97;4882062;29;20576;-79
2022/02/09 20:55:22;;;;;;;75.22;40.33;;;;;;;6.24;60.98;96105.59;4883082;29;20044;-78
2022/02/09 20:57:47;;;;;;;69.25;37.22;;;;;;;6.23;61.15;96109.94;4897998;29;20615;-78
2022/02/09 21:00:20;;;;;;;66.93;32.50;;;;;;;6.23;61.39;96116.91;4912752;29;20029;-78
2022/02/09 21:03:02;;;;;;;49.17;27.98;;;;;;;6.20;60.98;96109.50;4915572;29;20078;-78
2022/02/09 21:13:49;;;;;;;77.10;32.58;;;;;;;6.10;61.66;96106.31;4915202;29;20556;-78
2022/02/09 21:55:52;;;;;;;30.75;14.27;;;;;;;5.51;62.98;96095.66;4912539;29;20052;-78
2022/02/09 22:20:18;;;;;;;48.22;28.13;;;;;;;5.56;62.52;96116.63;4915968;29;20072;-77
2022/02/09 22:23:08;;;;;;;44.72;25.15;;;;;;;5.56;62.62;96121.78;4916120;29;20119;-77
2022/02/09 22:28:31;;;;;;;43.83;24.17;;;;;;;5.53;62.62;96119.50;4916818;29;20539;-78
2022/02/09 22:50:09;;;;;;;238.35;116.60;;;;;;;5.26;62.84;96082.06;4906900;29;20465;-77
2022/02/09 22:55:16;;;;;;;119.18;58.97;;;;;;;5.13;63.06;96082.59;4914644;29;20039;-78
2022/02/09 22:57:52;;;;;;;45.95;25.23;;;;;;;5.15;63.20;96075.50;4900217;29;20520;-78
2022/02/09 23:00:39;;;;;;;58.38;32.28;;;;;;;5.15;64.25;96075.50;4900237;29;20086;-78
2022/02/09 23:03:06;;;;;;;57.17;30.52;;;;;;;5.12;63.89;96065.53;4920688;29;20032;-78
2022/02/09 23:05:56;;;;;;;43.00;23.50;;;;;;;5.11;63.50;96069.06;4902673;29;20040;-78
2022/02/09 23:11:23;;;;;;;31.20;15.70;;;;;;;5.16;64.75;96071.16;4915440;29;20183;-78
2022/02/09 23:13:59;;;;;;;38.50;20.65;;;;;;;5.15;64.13;96069.53;4904222;29;20039;-78
